sensor_id;sensor_type;location;lat;lon;timestamp;P1;durP1;ratioP1;P2;durP2;ratioP2
52724;SDS011;38621;52.830;6.914;2022-12-29T00:00:06;3.58;;;2.70;;
52724;SDS011;38621;52.830;6.914;2022-12-29T00:02:33;4.22;;;3.40;;
52724;SDS011;38621;52.830;6.914;2022-12-29T00:04:59;5.25;;;3.03;;
52724;SDS011;38621;52.830;6.914;2022-12-29T00:07:24;4.53;;;2.85;;
52724;SDS011;38621;52.830;6.914;2022-12-29T00:09:50;3.15;;;2.60;;
52724;SDS011;38621;52.830;6.914;2022-12-29T00:12:16;4.32;;;3.03;;
52724;SDS011;38621;52.830;6.914;2022-12-29T00:14:41;3.08;;;2.78;;
52724;SDS011;38621;52.830;6.914;2022-12-29T00:17:25;3.38;;;2.53;;
52724;SDS011;38621;52.830;6.914;2022-12-29T00:19:51;3.08;;;2.75;;
52724;SDS011;38621;52.830;6.914;2022-12-29T00:22:35;3.80;;;2.63;;
52724;SDS011;38621;52.830;6.914;2022-12-29T00:25:20;3.20;;;2.67;;
52724;SDS011;38621;52.830;6.914;2022-12-29T00:28:04;3.00;;;2.50;;
52724;SDS011;38621;52.830;6.914;2022-12-29T00:30:58;3.83;;;2.90;;
52724;SDS011;38621;52.830;6.914;2022-12-29T00:33:43;3.78;;;2.80;;
52724;SDS011;38621;52.830;6.914;2022-12-29T00:36:35;4.57;;;2.92;;
52724;SDS011;38621;52.830;6.914;2022-12-29T00:39:10;3.80;;;3.20;;
52724;SDS011;38621;52.830;6.914;2022-12-29T00:42:07;4.05;;;3.28;;
52724;SDS011;38621;52.830;6.914;2022-12-29T00:45:03;3.70;;;2.75;;
52724;SDS011;38621;52.830;6.914;2022-12-29T00:47:29;4.43;;;3.10;;
52724;SDS011;38621;52.830;6.914;2022-12-29T00:49:54;4.22;;;2.70;;
52724;SDS011;38621;52.830;6.914;2022-12-29T00:52:20;3.70;;;2.90;;
52724;SDS011;38621;52.830;6.914;2022-12-29T00:54:46;4.65;;;3.00;;
52724;SDS011;38621;52.830;6.914;2022-12-29T00:57:11;4.78;;;2.33;;
52724;SDS011;38621;52.830;6.914;2022-12-29T00:59:38;4.10;;;2.97;;
52724;SDS011;38621;52.830;6.914;2022-12-29T01:02:05;3.38;;;2.60;;
52724;SDS011;38621;52.830;6.914;2022-12-29T01:04:32;3.60;;;2.13;;
52724;SDS011;38621;52.830;6.914;2022-12-29T01:06:58;3.20;;;1.73;;
52724;SDS011;38621;52.830;6.914;2022-12-29T01:09:23;3.63;;;2.20;;
52724;SDS011;38621;52.830;6.914;2022-12-29T01:12:15;2.88;;;2.10;;
52724;SDS011;38621;52.830;6.914;2022-12-29T01:14:41;3.17;;;2.25;;
52724;SDS011;38621;52.830;6.914;2022-12-29T01:17:07;3.17;;;2.22;;
52724;SDS011;38621;52.830;6.914;2022-12-29T01:19:33;3.15;;;2.10;;
52724;SDS011;38621;52.830;6.914;2022-12-29T01:21:58;2.75;;;1.98;;
52724;SDS011;38621;52.830;6.914;2022-12-29T01:24:24;3.08;;;2.10;;
52724;SDS011;38621;52.830;6.914;2022-12-29T01:26:51;2.45;;;1.77;;
52724;SDS011;38621;52.830;6.914;2022-12-29T01:29:16;3.53;;;2.40;;
52724;SDS011;38621;52.830;6.914;2022-12-29T01:31:42;3.00;;;2.05;;
52724;SDS011;38621;52.830;6.914;2022-12-29T01:34:08;2.78;;;1.70;;
52724;SDS011;38621;52.830;6.914;2022-12-29T01:36:34;2.70;;;2.00;;
52724;SDS011;38621;52.830;6.914;2022-12-29T01:38:59;2.70;;;2.03;;
52724;SDS011;38621;52.830;6.914;2022-12-29T01:41:25;3.53;;;1.67;;
52724;SDS011;38621;52.830;6.914;2022-12-29T01:43:53;3.90;;;2.30;;
52724;SDS011;38621;52.830;6.914;2022-12-29T01:51:38;2.40;;;1.75;;
52724;SDS011;38621;52.830;6.914;2022-12-29T01:54:15;2.53;;;1.60;;
52724;SDS011;38621;52.830;6.914;2022-12-29T01:56:47;2.60;;;1.70;;
52724;SDS011;38621;52.830;6.914;2022-12-29T01:59:15;2.70;;;1.85;;
52724;SDS011;38621;52.830;6.914;2022-12-29T02:01:46;2.42;;;1.55;;
52724;SDS011;38621;52.830;6.914;2022-12-29T02:04:12;2.50;;;1.73;;
52724;SDS011;38621;52.830;6.914;2022-12-29T02:06:49;2.80;;;1.60;;
52724;SDS011;38621;52.830;6.914;2022-12-29T02:09:20;2.47;;;1.70;;
52724;SDS011;38621;52.830;6.914;2022-12-29T02:11:46;2.45;;;1.42;;
52724;SDS011;38621;52.830;6.914;2022-12-29T02:14:13;3.35;;;1.60;;
52724;SDS011;38621;52.830;6.914;2022-12-29T02:16:58;2.35;;;1.58;;
52724;SDS011;38621;52.830;6.914;2022-12-29T02:36:40;2.42;;;1.20;;
52724;SDS011;38621;52.830;6.914;2022-12-29T02:39:15;2.47;;;1.40;;
52724;SDS011;38621;52.830;6.914;2022-12-29T02:50:10;2.00;;;1.40;;
52724;SDS011;38621;52.830;6.914;2022-12-29T02:52:42;2.35;;;1.65;;
52724;SDS011;38621;52.830;6.914;2022-12-29T02:55:13;2.15;;;1.33;;
52724;SDS011;38621;52.830;6.914;2022-12-29T02:57:39;2.40;;;1.70;;
52724;SDS011;38621;52.830;6.914;2022-12-29T03:00:14;2.10;;;1.60;;
52724;SDS011;38621;52.830;6.914;2022-12-29T03:08:10;3.05;;;1.65;;
52724;SDS011;38621;52.830;6.914;2022-12-29T03:11:01;2.75;;;1.50;;
52724;SDS011;38621;52.830;6.914;2022-12-29T03:19:16;2.75;;;1.60;;
52724;SDS011;38621;52.830;6.914;2022-12-29T03:21:49;3.85;;;1.98;;
52724;SDS011;38621;52.830;6.914;2022-12-29T03:24:40;2.25;;;1.60;;
52724;SDS011;38621;52.830;6.914;2022-12-29T03:27:09;3.53;;;1.88;;
52724;SDS011;38621;52.830;6.914;2022-12-29T03:30:20;2.78;;;1.58;;
52724;SDS011;38621;52.830;6.914;2022-12-29T03:32:31;2.67;;;1.73;;
52724;SDS011;38621;52.830;6.914;2022-12-29T03:35:04;2.67;;;1.60;;
52724;SDS011;38621;52.830;6.914;2022-12-29T03:37:35;2.50;;;1.60;;
52724;SDS011;38621;52.830;6.914;2022-12-29T03:40:04;2.40;;;1.50;;
52724;SDS011;38621;52.830;6.914;2022-12-29T03:42:31;2.15;;;1.52;;
52724;SDS011;38621;52.830;6.914;2022-12-29T03:44:59;2.20;;;1.27;;
52724;SDS011;38621;52.830;6.914;2022-12-29T03:47:25;1.70;;;1.10;;
52724;SDS011;38621;52.830;6.914;2022-12-29T03:49:51;2.58;;;1.30;;
52724;SDS011;38621;52.830;6.914;2022-12-29T03:52:17;2.97;;;1.40;;
52724;SDS011;38621;52.830;6.914;2022-12-29T03:54:44;2.00;;;1.17;;
52724;SDS011;38621;52.830;6.914;2022-12-29T03:57:10;2.40;;;1.10;;
52724;SDS011;38621;52.830;6.914;2022-12-29T03:59:36;2.58;;;1.42;;
52724;SDS011;38621;52.830;6.914;2022-12-29T04:02:02;3.03;;;1.33;;
52724;SDS011;38621;52.830;6.914;2022-12-29T04:04:28;2.42;;;1.13;;
52724;SDS011;38621;52.830;6.914;2022-12-29T04:06:53;2.30;;;1.20;;
52724;SDS011;38621;52.830;6.914;2022-12-29T04:09:19;2.00;;;1.10;;
52724;SDS011;38621;52.830;6.914;2022-12-29T04:11:45;2.45;;;0.98;;
52724;SDS011;38621;52.830;6.914;2022-12-29T04:14:10;2.25;;;1.05;;
52724;SDS011;38621;52.830;6.914;2022-12-29T04:16:36;1.55;;;0.80;;
52724;SDS011;38621;52.830;6.914;2022-12-29T04:19:04;1.58;;;0.95;;
52724;SDS011;38621;52.830;6.914;2022-12-29T04:21:31;2.45;;;0.80;;
52724;SDS011;38621;52.830;6.914;2022-12-29T04:23:56;1.45;;;0.80;;
52724;SDS011;38621;52.830;6.914;2022-12-29T04:26:22;2.25;;;0.80;;
52724;SDS011;38621;52.830;6.914;2022-12-29T04:28:48;2.42;;;0.90;;
52724;SDS011;38621;52.830;6.914;2022-12-29T04:31:13;2.45;;;1.13;;
52724;SDS011;38621;52.830;6.914;2022-12-29T04:33:39;2.30;;;0.80;;
52724;SDS011;38621;52.830;6.914;2022-12-29T04:36:05;1.50;;;0.80;;
52724;SDS011;38621;52.830;6.914;2022-12-29T04:38:31;2.40;;;0.80;;
52724;SDS011;38621;52.830;6.914;2022-12-29T04:40:58;1.42;;;0.80;;
52724;SDS011;38621;52.830;6.914;2022-12-29T04:43:25;1.23;;;0.70;;
52724;SDS011;38621;52.830;6.914;2022-12-29T04:45:51;2.47;;;0.80;;
52724;SDS011;38621;52.830;6.914;2022-12-29T04:48:16;1.73;;;0.70;;
52724;SDS011;38621;52.830;6.914;2022-12-29T04:50:42;1.80;;;0.80;;
52724;SDS011;38621;52.830;6.914;2022-12-29T04:53:08;1.95;;;0.75;;
52724;SDS011;38621;52.830;6.914;2022-12-29T04:55:34;2.22;;;0.88;;
52724;SDS011;38621;52.830;6.914;2022-12-29T04:58:00;3.30;;;0.80;;
52724;SDS011;38621;52.830;6.914;2022-12-29T05:00:26;2.03;;;0.95;;
52724;SDS011;38621;52.830;6.914;2022-12-29T05:02:51;1.65;;;0.80;;
52724;SDS011;38621;52.830;6.914;2022-12-29T05:05:17;1.67;;;0.77;;
52724;SDS011;38621;52.830;6.914;2022-12-29T05:07:43;3.08;;;0.90;;
52724;SDS011;38621;52.830;6.914;2022-12-29T05:10:09;2.05;;;0.70;;
52724;SDS011;38621;52.830;6.914;2022-12-29T05:12:36;1.63;;;1.05;;
52724;SDS011;38621;52.830;6.914;2022-12-29T05:15:02;1.95;;;0.85;;
52724;SDS011;38621;52.830;6.914;2022-12-29T05:17:29;3.95;;;1.00;;
52724;SDS011;38621;52.830;6.914;2022-12-29T05:19:55;1.50;;;0.80;;
52724;SDS011;38621;52.830;6.914;2022-12-29T05:22:21;2.67;;;0.98;;
52724;SDS011;38621;52.830;6.914;2022-12-29T05:24:47;2.85;;;0.98;;
52724;SDS011;38621;52.830;6.914;2022-12-29T05:27:13;2.20;;;0.90;;
52724;SDS011;38621;52.830;6.914;2022-12-29T05:29:39;2.00;;;1.10;;
52724;SDS011;38621;52.830;6.914;2022-12-29T05:32:04;2.42;;;0.90;;
52724;SDS011;38621;52.830;6.914;2022-12-29T05:34:30;2.38;;;1.10;;
52724;SDS011;38621;52.830;6.914;2022-12-29T05:36:56;1.33;;;0.70;;
52724;SDS011;38621;52.830;6.914;2022-12-29T05:39:22;2.88;;;0.90;;
52724;SDS011;38621;52.830;6.914;2022-12-29T05:41:48;1.95;;;1.00;;
52724;SDS011;38621;52.830;6.914;2022-12-29T05:44:13;2.75;;;1.17;;
52724;SDS011;38621;52.830;6.914;2022-12-29T05:46:39;2.83;;;1.48;;
52724;SDS011;38621;52.830;6.914;2022-12-29T05:49:05;1.48;;;0.88;;
52724;SDS011;38621;52.830;6.914;2022-12-29T05:51:31;1.67;;;0.95;;
52724;SDS011;38621;52.830;6.914;2022-12-29T05:53:57;2.55;;;1.17;;
52724;SDS011;38621;52.830;6.914;2022-12-29T05:56:23;2.50;;;1.10;;
52724;SDS011;38621;52.830;6.914;2022-12-29T05:58:48;3.15;;;1.10;;
52724;SDS011;38621;52.830;6.914;2022-12-29T06:01:14;2.17;;;1.08;;
52724;SDS011;38621;52.830;6.914;2022-12-29T06:03:40;1.90;;;0.90;;
52724;SDS011;38621;52.830;6.914;2022-12-29T06:06:06;3.50;;;1.42;;
52724;SDS011;38621;52.830;6.914;2022-12-29T06:08:32;2.30;;;0.90;;
52724;SDS011;38621;52.830;6.914;2022-12-29T06:10:57;1.90;;;0.73;;
52724;SDS011;38621;52.830;6.914;2022-12-29T06:13:23;3.53;;;1.15;;
52724;SDS011;38621;52.830;6.914;2022-12-29T06:15:49;2.65;;;0.82;;
52724;SDS011;38621;52.830;6.914;2022-12-29T06:18:15;2.60;;;0.95;;
52724;SDS011;38621;52.830;6.914;2022-12-29T06:20:41;4.05;;;1.17;;
52724;SDS011;38621;52.830;6.914;2022-12-29T06:23:07;3.70;;;1.02;;
52724;SDS011;38621;52.830;6.914;2022-12-29T06:25:33;2.20;;;0.80;;
52724;SDS011;38621;52.830;6.914;2022-12-29T06:28:00;2.90;;;1.20;;
52724;SDS011;38621;52.830;6.914;2022-12-29T06:30:27;2.97;;;0.85;;
52724;SDS011;38621;52.830;6.914;2022-12-29T06:32:53;1.83;;;0.70;;
52724;SDS011;38621;52.830;6.914;2022-12-29T06:35:19;2.45;;;0.73;;
52724;SDS011;38621;52.830;6.914;2022-12-29T06:37:47;5.00;;;1.13;;
52724;SDS011;38621;52.830;6.914;2022-12-29T06:40:13;2.00;;;0.80;;
52724;SDS011;38621;52.830;6.914;2022-12-29T06:42:39;3.42;;;0.95;;
52724;SDS011;38621;52.830;6.914;2022-12-29T06:45:04;3.47;;;1.13;;
52724;SDS011;38621;52.830;6.914;2022-12-29T06:47:30;2.45;;;0.90;;
52724;SDS011;38621;52.830;6.914;2022-12-29T06:49:56;2.30;;;0.90;;
52724;SDS011;38621;52.830;6.914;2022-12-29T06:52:22;1.50;;;0.73;;
52724;SDS011;38621;52.830;6.914;2022-12-29T06:54:49;3.60;;;1.20;;
52724;SDS011;38621;52.830;6.914;2022-12-29T06:57:15;6.63;;;0.90;;
52724;SDS011;38621;52.830;6.914;2022-12-29T06:59:41;2.58;;;0.90;;
52724;SDS011;38621;52.830;6.914;2022-12-29T07:02:06;3.78;;;1.00;;
52724;SDS011;38621;52.830;6.914;2022-12-29T07:04:34;2.58;;;0.98;;
52724;SDS011;38621;52.830;6.914;2022-12-29T07:07:00;4.22;;;1.20;;
52724;SDS011;38621;52.830;6.914;2022-12-29T07:09:25;3.20;;;1.13;;
52724;SDS011;38621;52.830;6.914;2022-12-29T07:11:51;3.38;;;1.10;;
52724;SDS011;38621;52.830;6.914;2022-12-29T07:14:17;4.53;;;1.10;;
52724;SDS011;38621;52.830;6.914;2022-12-29T07:16:42;2.58;;;1.08;;
52724;SDS011;38621;52.830;6.914;2022-12-29T07:19:08;2.92;;;0.98;;
52724;SDS011;38621;52.830;6.914;2022-12-29T07:21:34;3.10;;;1.00;;
52724;SDS011;38621;52.830;6.914;2022-12-29T07:23:59;2.92;;;1.02;;
52724;SDS011;38621;52.830;6.914;2022-12-29T07:26:25;3.90;;;1.33;;
52724;SDS011;38621;52.830;6.914;2022-12-29T07:28:51;4.55;;;1.25;;
52724;SDS011;38621;52.830;6.914;2022-12-29T07:31:17;3.78;;;1.10;;
52724;SDS011;38621;52.830;6.914;2022-12-29T07:33:45;3.60;;;1.27;;
52724;SDS011;38621;52.830;6.914;2022-12-29T07:36:12;5.93;;;1.50;;
52724;SDS011;38621;52.830;6.914;2022-12-29T07:38:40;4.40;;;1.38;;
52724;SDS011;38621;52.830;6.914;2022-12-29T07:41:06;4.43;;;1.15;;
52724;SDS011;38621;52.830;6.914;2022-12-29T07:43:32;3.78;;;1.25;;
52724;SDS011;38621;52.830;6.914;2022-12-29T07:45:58;3.80;;;1.27;;
52724;SDS011;38621;52.830;6.914;2022-12-29T07:48:24;4.10;;;1.55;;
52724;SDS011;38621;52.830;6.914;2022-12-29T07:50:50;4.15;;;1.35;;
52724;SDS011;38621;52.830;6.914;2022-12-29T07:53:16;3.45;;;1.48;;
52724;SDS011;38621;52.830;6.914;2022-12-29T07:55:42;3.25;;;1.08;;
52724;SDS011;38621;52.830;6.914;2022-12-29T07:58:08;4.47;;;1.95;;
52724;SDS011;38621;52.830;6.914;2022-12-29T08:00:33;2.80;;;0.90;;
52724;SDS011;38621;52.830;6.914;2022-12-29T08:02:59;5.25;;;1.10;;
52724;SDS011;38621;52.830;6.914;2022-12-29T08:05:25;3.45;;;1.33;;
52724;SDS011;38621;52.830;6.914;2022-12-29T08:07:51;3.53;;;1.20;;
52724;SDS011;38621;52.830;6.914;2022-12-29T08:10:16;3.65;;;1.30;;
52724;SDS011;38621;52.830;6.914;2022-12-29T08:12:42;3.55;;;0.98;;
52724;SDS011;38621;52.830;6.914;2022-12-29T08:15:09;4.35;;;1.10;;
52724;SDS011;38621;52.830;6.914;2022-12-29T08:17:36;3.80;;;1.40;;
52724;SDS011;38621;52.830;6.914;2022-12-29T08:20:03;3.30;;;1.50;;
52724;SDS011;38621;52.830;6.914;2022-12-29T08:22:29;1.98;;;0.93;;
52724;SDS011;38621;52.830;6.914;2022-12-29T08:24:55;5.78;;;1.25;;
52724;SDS011;38621;52.830;6.914;2022-12-29T08:27:21;3.70;;;1.33;;
52724;SDS011;38621;52.830;6.914;2022-12-29T08:29:47;5.43;;;1.40;;
52724;SDS011;38621;52.830;6.914;2022-12-29T08:32:13;3.35;;;1.13;;
52724;SDS011;38621;52.830;6.914;2022-12-29T08:34:39;4.38;;;1.60;;
52724;SDS011;38621;52.830;6.914;2022-12-29T08:37:04;3.75;;;1.10;;
52724;SDS011;38621;52.830;6.914;2022-12-29T08:39:30;5.18;;;1.30;;
52724;SDS011;38621;52.830;6.914;2022-12-29T08:41:56;3.50;;;1.20;;
52724;SDS011;38621;52.830;6.914;2022-12-29T08:44:22;6.03;;;1.27;;
52724;SDS011;38621;52.830;6.914;2022-12-29T08:46:48;5.43;;;2.05;;
52724;SDS011;38621;52.830;6.914;2022-12-29T08:49:13;3.45;;;0.90;;
52724;SDS011;38621;52.830;6.914;2022-12-29T08:51:39;4.32;;;1.27;;
52724;SDS011;38621;52.830;6.914;2022-12-29T08:54:05;2.97;;;1.10;;
52724;SDS011;38621;52.830;6.914;2022-12-29T08:56:31;2.95;;;0.90;;
52724;SDS011;38621;52.830;6.914;2022-12-29T08:58:56;3.53;;;1.02;;
52724;SDS011;38621;52.830;6.914;2022-12-29T09:01:22;2.80;;;0.90;;
52724;SDS011;38621;52.830;6.914;2022-12-29T09:03:48;4.63;;;1.10;;
52724;SDS011;38621;52.830;6.914;2022-12-29T09:06:15;3.40;;;1.05;;
52724;SDS011;38621;52.830;6.914;2022-12-29T09:08:42;3.55;;;1.48;;
52724;SDS011;38621;52.830;6.914;2022-12-29T09:11:09;3.53;;;0.88;;
52724;SDS011;38621;52.830;6.914;2022-12-29T09:13:40;2.83;;;1.13;;
52724;SDS011;38621;52.830;6.914;2022-12-29T09:16:06;2.88;;;1.02;;
52724;SDS011;38621;52.830;6.914;2022-12-29T09:18:32;2.65;;;1.10;;
52724;SDS011;38621;52.830;6.914;2022-12-29T09:21:02;1.90;;;1.00;;
52724;SDS011;38621;52.830;6.914;2022-12-29T09:23:29;2.58;;;1.13;;
52724;SDS011;38621;52.830;6.914;2022-12-29T09:25:55;3.75;;;1.13;;
52724;SDS011;38621;52.830;6.914;2022-12-29T09:28:21;4.10;;;1.45;;
52724;SDS011;38621;52.830;6.914;2022-12-29T09:30:47;3.88;;;0.85;;
52724;SDS011;38621;52.830;6.914;2022-12-29T09:33:14;4.65;;;1.67;;
52724;SDS011;38621;52.830;6.914;2022-12-29T09:35:44;3.53;;;1.35;;
52724;SDS011;38621;52.830;6.914;2022-12-29T09:38:11;5.22;;;1.15;;
52724;SDS011;38621;52.830;6.914;2022-12-29T09:40:37;3.20;;;1.10;;
52724;SDS011;38621;52.830;6.914;2022-12-29T09:43:12;5.15;;;1.40;;
52724;SDS011;38621;52.830;6.914;2022-12-29T09:48:39;4.60;;;1.30;;
52724;SDS011;38621;52.830;6.914;2022-12-29T09:51:16;4.03;;;1.48;;
52724;SDS011;38621;52.830;6.914;2022-12-29T09:53:52;3.33;;;1.15;;
52724;SDS011;38621;52.830;6.914;2022-12-29T09:56:23;9.65;;;2.65;;
52724;SDS011;38621;52.830;6.914;2022-12-29T09:58:59;2.22;;;1.02;;
52724;SDS011;38621;52.830;6.914;2022-12-29T10:04:46;4.30;;;1.25;;
52724;SDS011;38621;52.830;6.914;2022-12-29T10:07:24;4.15;;;1.40;;
52724;SDS011;38621;52.830;6.914;2022-12-29T10:23:34;2.92;;;1.40;;
52724;SDS011;38621;52.830;6.914;2022-12-29T10:26:22;6.97;;;2.50;;
52724;SDS011;38621;52.830;6.914;2022-12-29T10:28:54;4.30;;;1.30;;
52724;SDS011;38621;52.830;6.914;2022-12-29T10:31:47;3.75;;;1.23;;
52724;SDS011;38621;52.830;6.914;2022-12-29T10:36:53;5.28;;;1.40;;
52724;SDS011;38621;52.830;6.914;2022-12-29T10:39:43;4.55;;;1.33;;
52724;SDS011;38621;52.830;6.914;2022-12-29T10:42:27;4.50;;;1.52;;
52724;SDS011;38621;52.830;6.914;2022-12-29T10:45:07;3.88;;;1.10;;
52724;SDS011;38621;52.830;6.914;2022-12-29T10:47:40;5.60;;;1.00;;
52724;SDS011;38621;52.830;6.914;2022-12-29T10:52:40;3.17;;;1.13;;
52724;SDS011;38621;52.830;6.914;2022-12-29T10:55:13;3.58;;;1.33;;
52724;SDS011;38621;52.830;6.914;2022-12-29T10:57:53;4.80;;;1.38;;
52724;SDS011;38621;52.830;6.914;2022-12-29T11:00:22;5.40;;;1.58;;
52724;SDS011;38621;52.830;6.914;2022-12-29T11:06:34;3.55;;;1.20;;
52724;SDS011;38621;52.830;6.914;2022-12-29T11:08:53;3.22;;;1.30;;
52724;SDS011;38621;52.830;6.914;2022-12-29T11:11:26;4.65;;;1.05;;
52724;SDS011;38621;52.830;6.914;2022-12-29T11:14:19;3.75;;;1.08;;
52724;SDS011;38621;52.830;6.914;2022-12-29T11:16:44;3.60;;;1.10;;
52724;SDS011;38621;52.830;6.914;2022-12-29T11:19:21;7.05;;;1.48;;
52724;SDS011;38621;52.830;6.914;2022-12-29T11:21:49;2.63;;;1.50;;
52724;SDS011;38621;52.830;6.914;2022-12-29T11:24:23;4.85;;;1.40;;
52724;SDS011;38621;52.830;6.914;2022-12-29T11:26:51;4.70;;;1.00;;
52724;SDS011;38621;52.830;6.914;2022-12-29T11:29:37;5.72;;;1.92;;
52724;SDS011;38621;52.830;6.914;2022-12-29T11:32:21;5.05;;;1.55;;
52724;SDS011;38621;52.830;6.914;2022-12-29T11:34:47;2.92;;;1.50;;
52724;SDS011;38621;52.830;6.914;2022-12-29T11:37:17;3.15;;;1.35;;
52724;SDS011;38621;52.830;6.914;2022-12-29T11:39:58;4.60;;;1.40;;
52724;SDS011;38621;52.830;6.914;2022-12-29T11:43:06;3.45;;;1.23;;
52724;SDS011;38621;52.830;6.914;2022-12-29T11:45:30;4.93;;;1.67;;
52724;SDS011;38621;52.830;6.914;2022-12-29T11:47:59;5.63;;;1.35;;
52724;SDS011;38621;52.830;6.914;2022-12-29T11:50:33;5.72;;;1.70;;
52724;SDS011;38621;52.830;6.914;2022-12-29T11:53:15;4.18;;;1.20;;
52724;SDS011;38621;52.830;6.914;2022-12-29T11:55:53;4.82;;;1.48;;
52724;SDS011;38621;52.830;6.914;2022-12-29T11:58:31;3.22;;;1.30;;
52724;SDS011;38621;52.830;6.914;2022-12-29T12:01:00;2.92;;;1.35;;
52724;SDS011;38621;52.830;6.914;2022-12-29T12:03:30;5.40;;;1.30;;
52724;SDS011;38621;52.830;6.914;2022-12-29T12:06:03;3.10;;;1.08;;
52724;SDS011;38621;52.830;6.914;2022-12-29T12:08:36;4.60;;;1.70;;
52724;SDS011;38621;52.830;6.914;2022-12-29T12:11:14;5.78;;;1.60;;
52724;SDS011;38621;52.830;6.914;2022-12-29T12:16:46;5.05;;;1.50;;
52724;SDS011;38621;52.830;6.914;2022-12-29T12:22:12;8.45;;;2.22;;
52724;SDS011;38621;52.830;6.914;2022-12-29T12:24:52;5.90;;;1.60;;
52724;SDS011;38621;52.830;6.914;2022-12-29T12:27:39;5.80;;;1.50;;
52724;SDS011;38621;52.830;6.914;2022-12-29T12:30:14;3.78;;;1.50;;
52724;SDS011;38621;52.830;6.914;2022-12-29T12:32:50;6.07;;;2.10;;
52724;SDS011;38621;52.830;6.914;2022-12-29T12:43:55;6.55;;;1.67;;
52724;SDS011;38621;52.830;6.914;2022-12-29T12:57:36;2.22;;;0.80;;
52724;SDS011;38621;52.830;6.914;2022-12-29T13:16:31;4.15;;;1.50;;
52724;SDS011;38621;52.830;6.914;2022-12-29T13:27:13;6.47;;;1.90;;
52724;SDS011;38621;52.830;6.914;2022-12-29T13:38:10;7.65;;;1.80;;
52724;SDS011;38621;52.830;6.914;2022-12-29T13:40:53;8.50;;;2.30;;
52724;SDS011;38621;52.830;6.914;2022-12-29T13:43:24;7.35;;;2.25;;
52724;SDS011;38621;52.830;6.914;2022-12-29T13:45:59;7.85;;;1.98;;
52724;SDS011;38621;52.830;6.914;2022-12-29T13:48:37;5.22;;;2.03;;
52724;SDS011;38621;52.830;6.914;2022-12-29T13:51:16;7.55;;;2.00;;
52724;SDS011;38621;52.830;6.914;2022-12-29T14:02:02;8.00;;;1.73;;
52724;SDS011;38621;52.830;6.914;2022-12-29T14:04:58;6.05;;;1.63;;
52724;SDS011;38621;52.830;6.914;2022-12-29T14:07:47;4.88;;;1.88;;
52724;SDS011;38621;52.830;6.914;2022-12-29T14:10:34;4.03;;;1.33;;
52724;SDS011;38621;52.830;6.914;2022-12-29T14:13:04;4.75;;;1.58;;
52724;SDS011;38621;52.830;6.914;2022-12-29T14:15:31;4.65;;;1.38;;
52724;SDS011;38621;52.830;6.914;2022-12-29T14:18:02;6.60;;;2.33;;
52724;SDS011;38621;52.830;6.914;2022-12-29T14:26:32;5.30;;;1.85;;
52724;SDS011;38621;52.830;6.914;2022-12-29T14:28:54;7.93;;;2.08;;
52724;SDS011;38621;52.830;6.914;2022-12-29T14:36:43;4.10;;;1.42;;
52724;SDS011;38621;52.830;6.914;2022-12-29T14:44:45;7.93;;;2.08;;
52724;SDS011;38621;52.830;6.914;2022-12-29T14:47:11;5.47;;;1.70;;
52724;SDS011;38621;52.830;6.914;2022-12-29T14:50:05;6.18;;;1.95;;
52724;SDS011;38621;52.830;6.914;2022-12-29T14:52:32;9.43;;;2.22;;
52724;SDS011;38621;52.830;6.914;2022-12-29T14:57:39;8.65;;;1.88;;
52724;SDS011;38621;52.830;6.914;2022-12-29T15:02:38;6.43;;;1.90;;
52724;SDS011;38621;52.830;6.914;2022-12-29T15:05:29;4.10;;;2.10;;
52724;SDS011;38621;52.830;6.914;2022-12-29T15:08:17;5.72;;;2.15;;
52724;SDS011;38621;52.830;6.914;2022-12-29T15:10:53;3.92;;;1.10;;
52724;SDS011;38621;52.830;6.914;2022-12-29T15:13:23;4.78;;;1.20;;
52724;SDS011;38621;52.830;6.914;2022-12-29T15:15:58;3.67;;;1.35;;
52724;SDS011;38621;52.830;6.914;2022-12-29T15:18:29;6.28;;;1.88;;
52724;SDS011;38621;52.830;6.914;2022-12-29T15:20:57;4.90;;;1.40;;
52724;SDS011;38621;52.830;6.914;2022-12-29T15:23:25;5.05;;;1.48;;
52724;SDS011;38621;52.830;6.914;2022-12-29T15:28:20;5.82;;;1.60;;
52724;SDS011;38621;52.830;6.914;2022-12-29T15:30:57;8.70;;;1.65;;
52724;SDS011;38621;52.830;6.914;2022-12-29T15:33:27;6.30;;;1.63;;
52724;SDS011;38621;52.830;6.914;2022-12-29T15:35:54;8.43;;;2.10;;
52724;SDS011;38621;52.830;6.914;2022-12-29T15:38:25;8.00;;;1.73;;
52724;SDS011;38621;52.830;6.914;2022-12-29T15:40:54;6.00;;;1.65;;
52724;SDS011;38621;52.830;6.914;2022-12-29T15:46:12;5.70;;;2.00;;
52724;SDS011;38621;52.830;6.914;2022-12-29T15:48:39;7.28;;;2.22;;
52724;SDS011;38621;52.830;6.914;2022-12-29T15:51:38;7.15;;;2.60;;
52724;SDS011;38621;52.830;6.914;2022-12-29T15:53:59;6.90;;;1.73;;
52724;SDS011;38621;52.830;6.914;2022-12-29T15:56:28;8.73;;;3.10;;
52724;SDS011;38621;52.830;6.914;2022-12-29T15:58:55;6.95;;;2.03;;
52724;SDS011;38621;52.830;6.914;2022-12-29T16:01:32;4.90;;;1.80;;
52724;SDS011;38621;52.830;6.914;2022-12-29T16:04:00;5.90;;;2.08;;
52724;SDS011;38621;52.830;6.914;2022-12-29T16:09:17;6.68;;;2.20;;
52724;SDS011;38621;52.830;6.914;2022-12-29T16:11:52;7.45;;;1.92;;
52724;SDS011;38621;52.830;6.914;2022-12-29T16:14:30;5.20;;;2.30;;
52724;SDS011;38621;52.830;6.914;2022-12-29T16:17:13;7.28;;;2.13;;
52724;SDS011;38621;52.830;6.914;2022-12-29T16:19:47;5.85;;;1.83;;
52724;SDS011;38621;52.830;6.914;2022-12-29T16:22:41;4.20;;;2.13;;
52724;SDS011;38621;52.830;6.914;2022-12-29T16:25:17;8.55;;;2.33;;
52724;SDS011;38621;52.830;6.914;2022-12-29T16:27:47;4.80;;;1.83;;
52724;SDS011;38621;52.830;6.914;2022-12-29T16:30:18;6.50;;;2.40;;
52724;SDS011;38621;52.830;6.914;2022-12-29T16:32:47;6.70;;;2.20;;
52724;SDS011;38621;52.830;6.914;2022-12-29T16:35:18;5.38;;;2.42;;
52724;SDS011;38621;52.830;6.914;2022-12-29T16:37:46;5.40;;;1.83;;
52724;SDS011;38621;52.830;6.914;2022-12-29T16:40:29;6.75;;;2.38;;
52724;SDS011;38621;52.830;6.914;2022-12-29T16:42:56;5.68;;;2.08;;
52724;SDS011;38621;52.830;6.914;2022-12-29T16:45:38;4.30;;;1.98;;
52724;SDS011;38621;52.830;6.914;2022-12-29T16:50:40;6.22;;;2.55;;
52724;SDS011;38621;52.830;6.914;2022-12-29T16:53:27;4.43;;;1.67;;
52724;SDS011;38621;52.830;6.914;2022-12-29T16:55:56;4.90;;;1.60;;
52724;SDS011;38621;52.830;6.914;2022-12-29T16:58:26;4.30;;;1.70;;
52724;SDS011;38621;52.830;6.914;2022-12-29T17:00:56;3.38;;;1.58;;
52724;SDS011;38621;52.830;6.914;2022-12-29T17:03:38;3.58;;;1.40;;
52724;SDS011;38621;52.830;6.914;2022-12-29T17:06:09;4.50;;;1.60;;
52724;SDS011;38621;52.830;6.914;2022-12-29T17:08:43;2.30;;;1.40;;
52724;SDS011;38621;52.830;6.914;2022-12-29T17:14:03;3.42;;;1.20;;
52724;SDS011;38621;52.830;6.914;2022-12-29T17:16:29;2.17;;;0.77;;
52724;SDS011;38621;52.830;6.914;2022-12-29T17:18:55;4.18;;;1.20;;
52724;SDS011;38621;52.830;6.914;2022-12-29T17:21:20;4.35;;;1.30;;
52724;SDS011;38621;52.830;6.914;2022-12-29T17:23:46;4.18;;;1.35;;
52724;SDS011;38621;52.830;6.914;2022-12-29T17:26:11;2.78;;;1.45;;
52724;SDS011;38621;52.830;6.914;2022-12-29T17:28:37;3.65;;;1.90;;
52724;SDS011;38621;52.830;6.914;2022-12-29T17:31:04;3.05;;;1.60;;
52724;SDS011;38621;52.830;6.914;2022-12-29T17:33:37;3.55;;;1.55;;
52724;SDS011;38621;52.830;6.914;2022-12-29T17:36:06;7.47;;;2.00;;
52724;SDS011;38621;52.830;6.914;2022-12-29T17:38:35;4.45;;;2.03;;
52724;SDS011;38621;52.830;6.914;2022-12-29T17:41:01;4.80;;;2.67;;
52724;SDS011;38621;52.830;6.914;2022-12-29T17:43:27;3.10;;;2.42;;
52724;SDS011;38621;52.830;6.914;2022-12-29T17:45:57;4.43;;;2.80;;
52724;SDS011;38621;52.830;6.914;2022-12-29T17:48:23;6.32;;;2.72;;
52724;SDS011;38621;52.830;6.914;2022-12-29T17:50:50;6.72;;;3.03;;
52724;SDS011;38621;52.830;6.914;2022-12-29T17:53:27;4.75;;;2.70;;
52724;SDS011;38621;52.830;6.914;2022-12-29T17:55:54;7.57;;;2.78;;
52724;SDS011;38621;52.830;6.914;2022-12-29T17:58:24;7.35;;;3.22;;